createdAt,value
2018-12-06T00:02:42.142Z,9.60
2018-12-06T00:05:31.480Z,9.60
2018-12-06T00:08:20.837Z,9.60
2018-12-06T00:11:10.153Z,9.50
2018-12-06T00:13:59.522Z,9.60
2018-12-06T00:17:07.782Z,9.40
2018-12-06T00:19:57.115Z,9.40
2018-12-06T00:22:46.429Z,9.40
2018-12-06T00:25:35.761Z,9.50
2018-12-06T00:28:25.061Z,9.50
2018-12-06T00:31:14.371Z,9.50
2018-12-06T00:34:03.671Z,9.50
2018-12-06T00:36:53.004Z,9.50
2018-12-06T00:39:42.326Z,9.30
2018-12-06T00:42:31.638Z,9.40
2018-12-06T00:45:20.992Z,9.30
2018-12-06T00:48:10.332Z,9.10
2018-12-06T00:50:59.648Z,9.10
2018-12-06T00:53:48.990Z,9.20
2018-12-06T00:56:38.282Z,9.30
2018-12-06T00:59:27.616Z,9.20
2018-12-06T01:02:16.931Z,9.30
2018-12-06T01:05:06.686Z,9.40
2018-12-06T01:07:56.010Z,9.40
2018-12-06T01:10:45.330Z,9.20
2018-12-06T01:16:23.161Z,9.30
2018-12-06T01:19:12.479Z,9.40
2018-12-06T01:22:01.807Z,9.40
2018-12-06T01:24:43.807Z,9.50
2018-12-06T01:27:27.863Z,9.50
2018-12-06T01:30:07.654Z,9.50
2018-12-06T01:32:49.668Z,9.50
2018-12-06T01:35:31.228Z,9.50
2018-12-06T01:38:13.364Z,9.50
2018-12-06T01:40:55.208Z,9.40
2018-12-06T01:43:37.426Z,9.40
2018-12-06T01:46:19.193Z,9.50
2018-12-06T01:49:00.947Z,9.40
2018-12-06T01:51:43.035Z,9.40
2018-12-06T01:54:23.648Z,9.40
2018-12-06T01:57:12.987Z,9.40
2018-12-06T02:00:04.703Z,9.50
2018-12-06T02:02:51.625Z,9.40
2018-12-06T02:05:40.938Z,9.30
2018-12-06T02:08:30.236Z,9.30
2018-12-06T02:11:19.585Z,9.40
2018-12-06T02:14:08.874Z,9.30
2018-12-06T02:16:58.197Z,9.30
2018-12-06T02:19:47.533Z,9.40
2018-12-06T02:22:36.833Z,9.40
2018-12-06T02:25:26.343Z,9.40
2018-12-06T02:28:15.671Z,9.40
2018-12-06T02:31:04.992Z,9.50
2018-12-06T02:33:54.278Z,9.40
2018-12-06T02:36:43.623Z,9.40
2018-12-06T02:39:32.926Z,9.30
2018-12-06T02:42:22.226Z,9.40
2018-12-06T02:45:12.874Z,9.50
2018-12-06T02:48:00.853Z,9.50
2018-12-06T02:50:50.182Z,9.30
2018-12-06T02:53:39.498Z,9.30
2018-12-06T02:56:28.825Z,9.40
2018-12-06T02:59:18.134Z,9.40
2018-12-06T03:02:07.457Z,9.30
2018-12-06T03:04:56.744Z,9.30
2018-12-06T03:07:46.055Z,9.30
2018-12-06T03:10:35.356Z,9.20
2018-12-06T03:13:24.730Z,9.30
2018-12-06T03:16:14.027Z,9.30
2018-12-06T03:19:03.371Z,9.30
2018-12-06T03:21:52.685Z,9.40
2018-12-06T03:24:41.996Z,9.30
2018-12-06T03:30:19.799Z,9.20
2018-12-06T03:33:09.136Z,9.20
2018-12-06T03:35:58.471Z,9.30
2018-12-06T03:38:47.782Z,9.40
2018-12-06T03:41:37.105Z,9.40
2018-12-06T03:44:26.412Z,9.40
2018-12-06T03:47:15.734Z,9.50
2018-12-06T03:50:05.202Z,9.50
2018-12-06T03:52:54.556Z,9.40
2018-12-06T03:55:43.843Z,9.40
2018-12-06T03:58:34.888Z,9.40
2018-12-06T04:01:22.475Z,9.30
2018-12-06T04:04:11.814Z,9.40
2018-12-06T04:07:01.097Z,9.20
2018-12-06T04:09:50.420Z,9.20
2018-12-06T04:15:28.189Z,9.30
2018-12-06T04:18:17.486Z,9.40
2018-12-06T04:21:06.794Z,9.50
2018-12-06T04:23:56.095Z,9.30
2018-12-06T04:26:45.413Z,9.40
2018-12-06T04:29:34.706Z,9.40
2018-12-06T04:35:12.527Z,9.50
2018-12-06T04:38:01.837Z,9.40
2018-12-06T04:43:59.615Z,9.40
2018-12-06T04:49:57.401Z,9.30
2018-12-06T04:52:46.724Z,9.00
2018-12-06T04:55:36.068Z,9.10
2018-12-06T04:58:25.367Z,9.20
2018-12-06T05:01:14.676Z,9.20
2018-12-06T05:04:04.030Z,8.90
2018-12-06T05:06:53.333Z,8.90
2018-12-06T05:09:42.646Z,8.90
2018-12-06T05:15:20.483Z,9.10
2018-12-06T05:18:09.798Z,9.30
2018-12-06T05:20:59.091Z,9.30
2018-12-06T05:23:48.386Z,9.20
2018-12-06T05:26:37.700Z,9.10
2018-12-06T05:29:27.010Z,9.10
2018-12-06T05:32:16.324Z,9.20
2018-12-06T05:35:05.920Z,9.30
2018-12-06T05:37:55.228Z,9.50
2018-12-06T05:40:44.521Z,9.60
2018-12-06T05:43:33.860Z,9.60
2018-12-06T05:46:23.177Z,9.60
2018-12-06T05:49:12.481Z,9.70
2018-12-06T05:52:01.783Z,9.60
2018-12-06T05:54:51.131Z,9.70
2018-12-06T05:57:40.414Z,9.60
2018-12-06T06:00:29.737Z,9.50
2018-12-06T06:03:19.060Z,9.50
2018-12-06T06:06:08.395Z,9.60
2018-12-06T06:08:57.711Z,9.60
2018-12-06T06:11:47.055Z,9.50
2018-12-06T06:14:36.350Z,9.50
2018-12-06T06:17:26.471Z,9.40
2018-12-06T06:20:15.750Z,9.50
2018-12-06T06:23:05.083Z,9.60
2018-12-06T06:25:54.390Z,9.60
2018-12-06T06:28:43.704Z,9.60
2018-12-06T06:31:32.988Z,9.70
2018-12-06T06:34:22.341Z,9.70
2018-12-06T06:37:11.639Z,9.60
2018-12-06T06:40:00.950Z,9.60
2018-12-06T06:42:50.279Z,9.70
2018-12-06T06:45:58.310Z,9.70
2018-12-06T06:48:47.593Z,9.70
2018-12-06T06:51:36.947Z,9.70
2018-12-06T06:54:26.240Z,9.80
2018-12-06T07:03:44.606Z,9.80
2018-12-06T07:09:22.434Z,9.80
2018-12-06T07:12:11.766Z,9.80
2018-12-06T07:15:01.102Z,9.80
2018-12-06T07:17:50.414Z,10.00
2018-12-06T07:23:48.200Z,10.70
2018-12-06T07:26:37.543Z,11.10
2018-12-06T07:29:26.832Z,10.70
2018-12-06T07:32:16.183Z,10.60
2018-12-06T07:35:05.678Z,10.60
2018-12-06T07:37:54.990Z,10.50
2018-12-06T07:40:44.316Z,10.50
2018-12-06T07:43:35.499Z,10.50
2018-12-06T07:46:22.960Z,10.50
2018-12-06T07:49:12.284Z,10.50
2018-12-06T07:52:01.612Z,10.60
2018-12-06T07:54:50.911Z,10.50
2018-12-06T07:57:40.326Z,10.60
2018-12-06T08:00:29.630Z,10.60
2018-12-06T08:03:18.942Z,10.60
2018-12-06T08:06:08.258Z,10.60
2018-12-06T08:12:06.054Z,10.40
2018-12-06T08:14:55.387Z,10.40
2018-12-06T08:17:44.723Z,10.50
2018-12-06T08:20:34.039Z,10.60
2018-12-06T08:23:23.374Z,10.70
2018-12-06T08:26:12.739Z,10.80
2018-12-06T08:29:02.052Z,10.80
2018-12-06T08:31:51.373Z,10.80
2018-12-06T08:34:40.688Z,10.80
2018-12-06T08:37:30.008Z,10.80
2018-12-06T08:40:19.324Z,10.90
2018-12-06T08:43:08.680Z,10.90
2018-12-06T08:45:57.969Z,10.90
2018-12-06T08:48:47.292Z,11.00
2018-12-06T08:51:36.625Z,11.00
2018-12-06T08:54:25.986Z,10.90
2018-12-06T08:57:15.309Z,10.80
2018-12-06T09:00:04.693Z,10.90
2018-12-06T09:03:13.051Z,10.80
2018-12-06T09:06:02.367Z,11.00
2018-12-06T09:08:51.688Z,10.90
2018-12-06T09:11:33.188Z,11.20
2018-12-06T09:14:15.203Z,11.40
2018-12-06T09:16:57.181Z,11.20
2018-12-06T09:19:38.972Z,11.30
2018-12-06T09:22:20.957Z,11.30
2018-12-06T09:25:02.657Z,11.50
2018-12-06T09:27:44.666Z,11.60
2018-12-06T09:30:26.460Z,11.70
2018-12-06T09:33:08.785Z,11.70
2018-12-06T09:35:50.753Z,11.70
2018-12-06T09:38:33.002Z,11.90
2018-12-06T09:41:14.662Z,12.00
2018-12-06T09:43:56.146Z,12.00
2018-12-06T09:46:37.984Z,12.00
2018-12-06T09:49:19.742Z,11.90
2018-12-06T09:52:01.501Z,11.80
2018-12-06T09:54:43.564Z,11.80
2018-12-06T09:57:25.273Z,11.80
2018-12-06T10:00:07.243Z,11.80
2018-12-06T10:02:48.999Z,11.90
2018-12-06T10:05:30.723Z,11.90
2018-12-06T10:08:11.104Z,11.90
2018-12-06T10:11:00.410Z,11.90
2018-12-06T10:13:49.733Z,11.80
2018-12-06T10:16:39.031Z,11.90
2018-12-06T10:19:28.349Z,12.00
2018-12-06T10:22:17.649Z,12.10
2018-12-06T10:25:07.445Z,12.00
2018-12-06T10:27:56.794Z,12.10
2018-12-06T10:30:46.152Z,12.30
2018-12-06T10:33:35.468Z,12.40
2018-12-06T10:36:24.803Z,12.40
2018-12-06T10:39:14.100Z,12.70
2018-12-06T10:42:03.556Z,12.90
2018-12-06T10:44:52.836Z,12.90
2018-12-06T10:47:42.137Z,12.80
2018-12-06T10:50:31.486Z,12.90
2018-12-06T10:53:20.792Z,12.70
2018-12-06T10:56:10.159Z,12.60
2018-12-06T10:58:59.490Z,12.50
2018-12-06T11:02:07.519Z,12.50
2018-12-06T11:04:56.836Z,12.60
2018-12-06T11:07:46.136Z,12.60
2018-12-06T11:10:35.497Z,12.70
2018-12-06T11:13:26.586Z,12.60
2018-12-06T11:16:14.183Z,12.60
2018-12-06T11:19:03.530Z,12.60
2018-12-06T11:21:52.843Z,12.50
2018-12-06T11:24:42.168Z,12.50
2018-12-06T11:27:31.692Z,12.50
2018-12-06T11:30:21.030Z,12.50
2018-12-06T11:33:10.340Z,12.60
2018-12-06T11:35:59.695Z,12.60
2018-12-06T11:38:49.038Z,12.70
2018-12-06T11:41:42.984Z,12.90
2018-12-06T11:44:27.701Z,12.90
2018-12-06T11:47:17.038Z,12.90
2018-12-06T11:50:06.852Z,13.10
2018-12-06T11:52:56.159Z,13.10
2018-12-06T11:55:45.492Z,13.00
2018-12-06T11:58:34.799Z,13.20
2018-12-06T12:01:24.115Z,13.20
2018-12-06T12:04:13.455Z,13.20
2018-12-06T12:07:02.789Z,13.30
2018-12-06T12:09:52.120Z,13.40
2018-12-06T12:12:41.440Z,13.30
2018-12-06T12:15:30.758Z,13.40
2018-12-06T12:18:20.092Z,13.30
2018-12-06T12:21:09.430Z,13.30
2018-12-06T12:23:58.761Z,13.30
2018-12-06T12:26:48.094Z,13.40
2018-12-06T12:29:30.231Z,13.40
2018-12-06T12:32:12.310Z,13.30
2018-12-06T12:34:53.911Z,13.30
2018-12-06T12:37:36.160Z,13.30
2018-12-06T12:40:18.474Z,13.30
2018-12-06T12:42:59.857Z,13.30
2018-12-06T12:45:41.570Z,13.40
2018-12-06T12:48:23.166Z,13.30
2018-12-06T12:51:04.625Z,13.20
2018-12-06T12:53:46.879Z,13.20
2018-12-06T12:56:28.327Z,13.20
2018-12-06T12:59:09.840Z,13.30
2018-12-06T13:02:23.613Z,13.30
2018-12-06T13:04:52.851Z,13.30
2018-12-06T13:07:22.013Z,13.30
2018-12-06T13:09:51.160Z,13.20
2018-12-06T13:12:20.384Z,13.10
2018-12-06T13:14:49.562Z,13.20
2018-12-06T13:17:18.736Z,13.20
2018-12-06T13:19:47.944Z,13.50
2018-12-06T13:22:17.133Z,13.80
2018-12-06T13:24:46.300Z,14.00
2018-12-06T13:27:15.628Z,14.10
2018-12-06T13:29:44.798Z,14.10
2018-12-06T13:32:13.958Z,14.40
2018-12-06T13:34:43.147Z,14.20
2018-12-06T13:37:12.400Z,14.10
2018-12-06T13:39:41.703Z,14.10
2018-12-06T13:42:11.032Z,14.10
2018-12-06T13:44:40.320Z,14.10
2018-12-06T13:47:09.519Z,14.00
2018-12-06T13:49:38.690Z,13.90
2018-12-06T13:52:08.039Z,13.80
2018-12-06T13:54:37.206Z,13.70
2018-12-06T13:57:06.400Z,13.70
2018-12-06T13:59:35.668Z,13.60
2018-12-06T14:02:05.029Z,13.50
2018-12-06T14:04:34.283Z,13.60
2018-12-06T14:07:03.463Z,13.50
2018-12-06T14:09:32.643Z,13.40
2018-12-06T14:12:01.813Z,13.40
2018-12-06T14:14:31.005Z,13.40
2018-12-06T14:17:00.221Z,13.50
2018-12-06T14:19:29.387Z,13.40
2018-12-06T14:21:59.037Z,13.50
2018-12-06T14:24:28.256Z,13.40
2018-12-06T14:26:57.445Z,13.30
2018-12-06T14:29:26.608Z,13.20
2018-12-06T14:31:55.792Z,13.30
2018-12-06T14:34:25.085Z,13.20
2018-12-06T14:37:01.526Z,13.20
2018-12-06T14:39:25.383Z,13.20
2018-12-06T14:41:54.615Z,13.20
2018-12-06T14:44:23.768Z,13.10
2018-12-06T14:46:53.008Z,13.20
2018-12-06T14:49:22.221Z,13.20
2018-12-06T14:51:51.534Z,13.20
2018-12-06T14:54:20.720Z,13.20
2018-12-06T14:56:49.896Z,13.20
2018-12-06T14:59:19.109Z,13.10
2018-12-06T15:01:48.579Z,13.20
2018-12-06T15:04:17.756Z,13.20
2018-12-06T15:06:46.919Z,13.00
2018-12-06T15:09:16.069Z,13.00
2018-12-06T15:11:45.239Z,12.90
2018-12-06T15:14:14.398Z,12.80
2018-12-06T15:16:43.594Z,12.80
2018-12-06T15:19:12.815Z,12.70
2018-12-06T15:21:41.974Z,12.70
2018-12-06T15:24:11.213Z,12.70
2018-12-06T15:26:40.406Z,12.70
2018-12-06T15:29:09.620Z,12.70
2018-12-06T15:31:38.797Z,12.60
2018-12-06T15:34:08.124Z,12.60
2018-12-06T15:36:37.256Z,12.40
2018-12-06T15:39:08.136Z,12.40
2018-12-06T15:41:37.272Z,12.40
2018-12-06T15:44:06.432Z,12.40
2018-12-06T15:46:36.200Z,12.50
2018-12-06T15:49:06.067Z,12.50
2018-12-06T15:51:35.379Z,12.40
2018-12-06T15:54:04.674Z,12.30
2018-12-06T15:56:33.827Z,12.50
2018-12-06T15:59:03.048Z,12.40
2018-12-06T16:01:32.217Z,12.40
2018-12-06T16:04:01.391Z,12.40
2018-12-06T16:06:30.652Z,12.30
2018-12-06T16:08:59.794Z,12.30
2018-12-06T16:11:28.961Z,12.40
2018-12-06T16:13:58.192Z,12.40
2018-12-06T16:16:27.393Z,12.40
2018-12-06T16:18:56.582Z,12.40
2018-12-06T16:21:25.780Z,12.50
2018-12-06T16:23:54.966Z,12.50
2018-12-06T16:26:24.122Z,12.60
2018-12-06T16:28:53.332Z,12.60
2018-12-06T16:31:22.633Z,12.60
2018-12-06T16:33:51.841Z,12.60
2018-12-06T16:36:21.044Z,12.60
2018-12-06T16:38:50.288Z,12.60
2018-12-06T16:41:20.650Z,12.60
2018-12-06T16:43:50.207Z,12.70
2018-12-06T16:46:19.383Z,12.60
2018-12-06T16:48:48.666Z,12.50
2018-12-06T16:51:18.050Z,12.50
2018-12-06T16:53:47.337Z,12.40
2018-12-06T16:56:16.677Z,12.40
2018-12-06T16:58:45.825Z,12.40
2018-12-06T17:01:15.307Z,12.40
2018-12-06T17:03:44.512Z,12.30
2018-12-06T17:06:13.918Z,12.30
2018-12-06T17:08:43.395Z,12.40
2018-12-06T17:11:12.583Z,12.40
2018-12-06T17:13:41.757Z,12.30
2018-12-06T17:16:10.984Z,12.40
2018-12-06T17:18:40.215Z,12.40
2018-12-06T17:21:09.376Z,12.40
2018-12-06T17:23:38.602Z,12.50
2018-12-06T17:26:07.824Z,12.50
2018-12-06T17:28:37.079Z,12.50
2018-12-06T17:31:06.436Z,12.50
2018-12-06T17:33:35.717Z,12.50
2018-12-06T17:36:05.199Z,12.50
2018-12-06T17:38:34.708Z,12.60
2018-12-06T17:41:04.153Z,12.50
2018-12-06T17:43:33.635Z,12.50
2018-12-06T17:46:03.135Z,12.50
2018-12-06T17:48:32.389Z,12.60
2018-12-06T17:51:01.876Z,12.50
2018-12-06T17:53:32.392Z,12.50
2018-12-06T17:56:02.185Z,12.50
2018-12-06T17:58:31.716Z,12.50
2018-12-06T18:01:00.946Z,12.60
2018-12-06T18:03:30.135Z,12.50
2018-12-06T18:05:59.320Z,12.50
2018-12-06T18:08:28.541Z,12.60
2018-12-06T18:10:57.755Z,12.60
2018-12-06T18:13:27.057Z,12.60
2018-12-06T18:15:56.247Z,12.60
2018-12-06T18:18:25.440Z,12.60
2018-12-06T18:20:54.728Z,12.60
2018-12-06T18:23:23.899Z,12.60
2018-12-06T18:25:53.061Z,12.60
2018-12-06T18:28:22.291Z,12.50
2018-12-06T18:30:51.482Z,12.60
2018-12-06T18:33:20.660Z,12.60
2018-12-06T18:35:49.835Z,12.50
2018-12-06T18:38:19.019Z,12.50
2018-12-06T18:40:48.283Z,12.50
2018-12-06T18:43:17.693Z,12.50
2018-12-06T18:45:46.989Z,12.50
2018-12-06T18:48:16.201Z,12.50
2018-12-06T18:50:45.673Z,12.50
2018-12-06T18:53:15.063Z,12.50
2018-12-06T18:55:44.415Z,12.50
2018-12-06T18:58:13.965Z,12.50
2018-12-06T19:00:43.547Z,12.50
2018-12-06T19:03:13.055Z,12.50
2018-12-06T19:05:42.553Z,12.50
2018-12-06T19:08:11.753Z,12.50
2018-12-06T19:10:40.953Z,12.60
2018-12-06T19:13:10.418Z,12.60
2018-12-06T19:15:39.929Z,12.50
2018-12-06T19:18:09.458Z,12.50
2018-12-06T19:20:38.921Z,12.40
2018-12-06T19:23:08.139Z,12.40
2018-12-06T19:25:37.587Z,12.50
2018-12-06T19:28:07.056Z,12.40
2018-12-06T19:30:37.227Z,12.40
2018-12-06T19:33:06.568Z,12.50
2018-12-06T19:35:35.760Z,12.50
2018-12-06T19:38:05.356Z,12.50
2018-12-06T19:40:34.601Z,12.50
2018-12-06T19:43:03.792Z,12.40
2018-12-06T19:45:33.291Z,12.50
2018-12-06T19:48:02.507Z,12.50
2018-12-06T19:50:31.952Z,12.50
2018-12-06T19:53:01.436Z,12.60
2018-12-06T19:55:30.677Z,12.50
2018-12-06T19:57:59.857Z,12.50
2018-12-06T20:00:29.294Z,12.50
2018-12-06T20:02:58.772Z,12.50
2018-12-06T20:05:28.389Z,12.50
2018-12-06T20:07:57.982Z,12.40
2018-12-06T20:10:27.276Z,12.40
2018-12-06T20:12:56.739Z,12.50
2018-12-06T20:15:26.051Z,12.50
2018-12-06T20:17:55.541Z,12.50
2018-12-06T20:20:24.861Z,12.50
2018-12-06T20:22:54.325Z,12.50
2018-12-06T20:25:23.548Z,12.50
2018-12-06T20:27:52.715Z,12.50
2018-12-06T20:30:22.196Z,12.50
2018-12-06T20:32:51.412Z,12.50
2018-12-06T20:35:20.632Z,12.50
2018-12-06T20:37:49.868Z,12.50
2018-12-06T20:40:19.049Z,12.50
2018-12-06T20:42:48.346Z,12.50
2018-12-06T20:45:17.544Z,12.40
2018-12-06T20:47:46.977Z,12.40
2018-12-06T20:50:16.151Z,12.50
2018-12-06T20:52:46.445Z,12.50
2018-12-06T20:55:15.742Z,12.50
2018-12-06T20:57:44.883Z,12.50
2018-12-06T21:00:14.342Z,12.60
2018-12-06T21:02:43.549Z,12.60
2018-12-06T21:05:12.935Z,12.50
2018-12-06T21:07:42.116Z,12.50
2018-12-06T21:10:11.440Z,12.60
2018-12-06T21:12:40.641Z,12.60
2018-12-06T21:15:09.817Z,12.60
2018-12-06T21:17:38.978Z,12.60
2018-12-06T21:20:08.530Z,12.50
2018-12-06T21:22:37.690Z,12.60
2018-12-06T21:25:07.558Z,12.60
2018-12-06T21:27:36.700Z,12.60
2018-12-06T21:30:06.526Z,12.60
2018-12-06T21:32:36.796Z,12.60
2018-12-06T21:35:06.205Z,12.60
2018-12-06T21:37:35.362Z,12.60
2018-12-06T21:40:05.804Z,12.70
2018-12-06T21:42:35.042Z,12.70
2018-12-06T21:45:04.864Z,12.70
2018-12-06T21:47:34.047Z,12.70
2018-12-06T21:50:03.755Z,12.70
2018-12-06T21:52:33.040Z,12.70
2018-12-06T21:55:02.250Z,12.60
2018-12-06T21:57:31.413Z,12.60
2018-12-06T22:00:00.617Z,12.60
2018-12-06T22:02:29.851Z,12.70
2018-12-06T22:04:59.000Z,12.70
2018-12-06T22:07:28.224Z,12.70
2018-12-06T22:09:57.356Z,12.60
2018-12-06T22:12:26.580Z,12.60
2018-12-06T22:14:55.797Z,12.60
2018-12-06T22:17:25.017Z,12.60
2018-12-06T22:19:54.261Z,12.70
2018-12-06T22:22:23.460Z,12.70
2018-12-06T22:24:52.598Z,12.70
2018-12-06T22:27:21.757Z,12.70
2018-12-06T22:29:50.974Z,12.70
2018-12-06T22:32:20.165Z,12.70
2018-12-06T22:34:49.403Z,12.70
2018-12-06T22:37:18.575Z,12.80
2018-12-06T22:39:47.762Z,12.80
2018-12-06T22:42:16.995Z,12.80
2018-12-06T22:44:46.159Z,12.70
2018-12-06T22:47:17.328Z,12.70
2018-12-06T22:49:46.680Z,12.70
2018-12-06T22:52:15.933Z,12.70
2018-12-06T22:54:45.075Z,12.70
2018-12-06T22:57:14.262Z,12.70
2018-12-06T22:59:43.462Z,12.80
2018-12-06T23:02:12.620Z,12.80
2018-12-06T23:04:41.861Z,12.80
2018-12-06T23:07:11.100Z,12.80
2018-12-06T23:09:40.301Z,12.80
2018-12-06T23:12:09.465Z,12.80
2018-12-06T23:14:38.713Z,12.80
2018-12-06T23:17:07.918Z,12.80
2018-12-06T23:19:37.104Z,12.80
2018-12-06T23:22:06.380Z,12.80
2018-12-06T23:24:35.452Z,12.80
2018-12-06T23:27:04.705Z,12.90
2018-12-06T23:29:33.932Z,12.90
2018-12-06T23:32:03.083Z,12.90
2018-12-06T23:34:32.247Z,12.90
2018-12-06T23:37:01.407Z,12.90
2018-12-06T23:39:30.530Z,12.90
2018-12-06T23:41:59.674Z,12.90
2018-12-06T23:44:28.896Z,12.90
2018-12-06T23:46:58.095Z,12.90
2018-12-06T23:49:27.252Z,12.90
2018-12-06T23:51:56.415Z,12.80
2018-12-06T23:54:25.612Z,12.80
2018-12-06T23:56:54.868Z,12.80
2018-12-06T23:59:24.032Z,12.80
